Terminal Aerodrome Forecast
Issued by NWS Kansas City/Pleasant Hill, MO

Home | Current Version | Previous Version | Text Only | Print | Product List | Glossary On
Versions: 1 2 3 4 5 6 7 8 9 10 11 12 13
044
FTUS43 KEAX 221730
TAFMCI
TAF
KMCI 221730Z 2218/2318 22010KT P6SM FEW140
     FM230000 VRB03KT P6SM VCTS SCT070CB
     FM231200 VRB03KT P6SM BKN200=

USA.gov is the U.S. government's official web portal to all federal, state and local government web resources and services.